Time;durP1;ratioP1;P1;durP2;ratioP2;P2;SDS_P1;SDS_P2;PMS_P1;PMS_P2;Temp;Humidity;BMP_temperature;BMP_pressure;BME280_temperature;BME280_humidity;BME280_pressure;Samples;Min_cycle;Max_cycle;Signal;HPM_P1;HPM_P2
2022/02/24 00:00:29;;;;;;;;;;;19.40;99.90;;;;;;5029519;28;19920;-60
2022/02/24 00:02:56;;;;;;;;;;;19.40;99.90;;;;;;5011560;28;19925;-60
2022/02/24 00:05:23;;;;;;;;;;;19.40;99.90;;;;;;5030576;28;19929;-61
2022/02/24 00:07:51;;;;;;;;;;;19.30;99.90;;;;;;5028864;28;19927;-61
2022/02/24 00:10:20;;;;;;;;;;;19.30;99.90;;;;;;5024249;28;20315;-65
2022/02/24 00:12:47;;;;;;;;;;;19.30;99.90;;;;;;5024156;28;20296;-61
2022/02/24 00:15:15;;;;;;;;;;;19.30;99.90;;;;;;5029329;28;19940;-61
2022/02/24 00:17:43;;;;;;;;;;;19.30;99.90;;;;;;5028731;28;19925;-61
2022/02/24 00:20:11;;;;;;;;;;;19.30;99.90;;;;;;5020041;28;19921;-61
2022/02/24 00:22:39;;;;;;;;;;;19.30;99.90;;;;;;5010222;28;19940;-61
2022/02/24 00:25:08;;;;;;;;;;;19.30;99.90;;;;;;5033057;28;19929;-61
2022/02/24 00:27:35;;;;;;;;;;;19.30;99.90;;;;;;5000765;28;19976;-61
2022/02/24 00:30:03;;;;;;;;;;;19.30;99.90;;;;;;5015086;28;20532;-61
2022/02/24 00:32:31;;;;;;;;;;;19.30;99.90;;;;;;5026321;28;19925;-61
2022/02/24 00:34:59;;;;;;;;;;;19.30;99.90;;;;;;5013984;28;19922;-61
2022/02/24 00:37:28;;;;;;;;;;;19.30;99.90;;;;;;5028443;28;19924;-60
2022/02/24 00:39:55;;;;;;;;;;;19.30;99.90;;;;;;5025840;28;19936;-62
2022/02/24 00:42:22;;;;;;;;;;;19.20;99.90;;;;;;5017824;28;19925;-62
2022/02/24 00:44:50;;;;;;;;;;;19.20;99.90;;;;;;5017401;28;20396;-59
2022/02/24 00:47:17;;;;;;;;;;;19.20;99.90;;;;;;5000024;28;19925;-60
2022/02/24 00:49:46;;;;;;;;;;;19.20;99.90;;;;;;5019682;28;19936;-61
2022/02/24 00:52:13;;;;;;;;;;;19.20;99.90;;;;;;5004927;28;19928;-61
2022/02/24 00:54:40;;;;;;;;;;;19.20;99.90;;;;;;5012672;28;20384;-62
2022/02/24 00:57:07;;;;;;;;;;;19.10;99.90;;;;;;5019928;28;19921;-60
2022/02/24 00:59:35;;;;;;;;;;;19.10;99.90;;;;;;5027366;28;20020;-62
2022/02/24 01:02:02;;;;;;;;;;;19.10;99.90;;;;;;5014000;28;19925;-59
2022/02/24 01:04:29;;;;;;;;;;;19.10;99.90;;;;;;5009123;28;19921;-60
2022/02/24 01:06:56;;;;;;;;;;;19.10;99.90;;;;;;5028561;28;19924;-59
2022/02/24 01:09:23;;;;;;;;;;;19.10;99.90;;;;;;5024147;28;19925;-60
2022/02/24 01:11:51;;;;;;;;;;;19.10;99.90;;;;;;5019681;28;19925;-60
2022/02/24 01:14:19;;;;;;;;;;;19.10;99.90;;;;;;5010452;28;19928;-61
2022/02/24 01:16:46;;;;;;;;;;;19.10;99.90;;;;;;5031329;28;19929;-61
2022/02/24 01:19:13;;;;;;;;;;;19.10;99.90;;;;;;5029977;28;19921;-61
2022/02/24 01:21:40;;;;;;;;;;;19.00;99.90;;;;;;5030267;28;19931;-61
2022/02/24 01:24:07;;;;;;;;;;;19.00;99.90;;;;;;5029638;28;20020;-61
2022/02/24 01:26:35;;;;;;;;;;;19.00;99.90;;;;;;5009307;28;19921;-61
2022/02/24 01:29:02;;;;;;;;;;;19.00;99.90;;;;;;5021401;28;19932;-61
2022/02/24 01:31:29;;;;;;;;;;;19.00;99.90;;;;;;5021975;28;20383;-61
2022/02/24 01:33:56;;;;;;;;;;;18.90;99.90;;;;;;5018484;28;19926;-61
2022/02/24 01:36:24;;;;;;;;;;;19.00;99.90;;;;;;5023605;28;20024;-62
2022/02/24 01:38:51;;;;;;;;;;;18.90;99.90;;;;;;5004429;28;19925;-62
2022/02/24 01:41:18;;;;;;;;;;;18.90;99.90;;;;;;5016573;28;19947;-60
2022/02/24 01:43:46;;;;;;;;;;;18.90;99.90;;;;;;5009177;28;20305;-62
2022/02/24 01:46:14;;;;;;;;;;;18.90;99.90;;;;;;5024364;28;19921;-60
2022/02/24 01:48:43;;;;;;;;;;;18.90;99.90;;;;;;5025365;28;20448;-60
2022/02/24 01:51:10;;;;;;;;;;;18.90;99.90;;;;;;5023703;28;20496;-62
2022/02/24 01:53:37;;;;;;;;;;;18.90;99.90;;;;;;5024818;28;19921;-60
2022/02/24 01:56:05;;;;;;;;;;;18.90;99.90;;;;;;5026923;28;19928;-59
2022/02/24 01:58:32;;;;;;;;;;;18.90;99.90;;;;;;5014303;28;19948;-59
2022/02/24 02:01:00;;;;;;;;;;;18.90;99.90;;;;;;5021052;28;19924;-60
2022/02/24 02:03:27;;;;;;;;;;;18.90;99.90;;;;;;5012313;28;19925;-60
2022/02/24 02:06:00;;;;;;;;;;;18.90;99.90;;;;;;5023142;28;19932;-59
2022/02/24 02:08:27;;;;;;;;;;;18.90;99.90;;;;;;5011763;28;19925;-60
2022/02/24 02:10:55;;;;;;;;;;;18.90;99.90;;;;;;5022342;28;19921;-61
2022/02/24 02:13:22;;;;;;;;;;;18.90;99.90;;;;;;5025912;28;20008;-60
2022/02/24 02:15:51;;;;;;;;;;;18.90;99.90;;;;;;5026847;28;19921;-61
2022/02/24 02:18:19;;;;;;;;;;;18.80;99.90;;;;;;5028376;28;19921;-61
2022/02/24 02:20:46;;;;;;;;;;;18.90;99.90;;;;;;5005487;28;19922;-61
2022/02/24 02:23:13;;;;;;;;;;;18.90;99.90;;;;;;5024406;28;19925;-60
2022/02/24 02:25:40;;;;;;;;;;;18.90;99.90;;;;;;5018208;28;19929;-61
2022/02/24 02:28:08;;;;;;;;;;;19.00;99.90;;;;;;5029059;28;19928;-61
2022/02/24 02:30:38;;;;;;;;;;;18.90;99.90;;;;;;5020629;28;19928;-61
2022/02/24 02:33:05;;;;;;;;;;;18.90;99.90;;;;;;5020901;28;19936;-60
2022/02/24 02:35:32;;;;;;;;;;;18.90;99.90;;;;;;5019076;28;20312;-59
2022/02/24 02:37:59;;;;;;;;;;;18.90;99.90;;;;;;5020284;28;19925;-61
2022/02/24 02:40:26;;;;;;;;;;;18.90;99.90;;;;;;5014626;28;20644;-61
2022/02/24 02:42:54;;;;;;;;;;;18.90;99.90;;;;;;5028323;28;20387;-59
2022/02/24 02:45:21;;;;;;;;;;;18.90;99.90;;;;;;5030092;28;20004;-60
2022/02/24 02:47:48;;;;;;;;;;;18.80;99.90;;;;;;5011669;28;19925;-60
2022/02/24 02:50:15;;;;;;;;;;;18.90;99.90;;;;;;5016871;28;19929;-60
2022/02/24 02:52:45;;;;;;;;;;;18.90;99.90;;;;;;5031414;28;19929;-60
2022/02/24 02:55:12;;;;;;;;;;;18.80;99.90;;;;;;5012346;28;19932;-59
2022/02/24 02:57:40;;;;;;;;;;;18.90;99.90;;;;;;5023635;28;20456;-61
2022/02/24 03:00:08;;;;;;;;;;;18.80;99.90;;;;;;5018381;28;20336;-62
2022/02/24 03:02:35;;;;;;;;;;;18.80;99.90;;;;;;5022773;28;19929;-59
2022/02/24 03:05:03;;;;;;;;;;;18.80;99.90;;;;;;5027636;28;20440;-60
2022/02/24 03:07:30;;;;;;;;;;;18.80;99.90;;;;;;5027498;28;19963;-59
2022/02/24 03:09:57;;;;;;;;;;;18.80;99.90;;;;;;5025998;28;19925;-59
2022/02/24 03:12:24;;;;;;;;;;;18.80;99.90;;;;;;5025150;28;19925;-60
2022/02/24 03:14:52;;;;;;;;;;;18.80;99.90;;;;;;5033014;28;19924;-60
2022/02/24 03:17:22;;;;;;;;;;;18.80;99.90;;;;;;5015904;28;19928;-60
2022/02/24 03:19:50;;;;;;;;;;;18.80;99.90;;;;;;5013297;28;19925;-59
2022/02/24 03:22:18;;;;;;;;;;;18.80;99.90;;;;;;5030741;28;20328;-60
2022/02/24 03:24:45;;;;;;;;;;;18.80;99.90;;;;;;5014881;28;19933;-61
2022/02/24 03:27:13;;;;;;;;;;;18.80;99.90;;;;;;5030926;28;19920;-61
2022/02/24 03:29:40;;;;;;;;;;;18.80;99.90;;;;;;5023900;28;19926;-60
2022/02/24 03:32:08;;;;;;;;;;;18.70;99.90;;;;;;5022197;28;19932;-61
2022/02/24 03:34:35;;;;;;;;;;;18.70;99.90;;;;;;5022861;28;19925;-62
2022/02/24 03:37:02;;;;;;;;;;;18.70;99.90;;;;;;5009012;28;19925;-60
2022/02/24 03:39:30;;;;;;;;;;;18.70;99.90;;;;;;5014231;28;20442;-60
2022/02/24 03:41:57;;;;;;;;;;;18.70;99.90;;;;;;5019240;28;19934;-59
2022/02/24 03:44:24;;;;;;;;;;;18.70;99.90;;;;;;5010710;28;19925;-60
2022/02/24 03:46:51;;;;;;;;;;;18.70;99.90;;;;;;5040348;28;20293;-60
2022/02/24 03:49:38;;;;;;;;;;;18.70;99.90;;;;;;5016076;28;20332;-60
2022/02/24 03:52:06;;;;;;;;;;;18.60;99.90;;;;;;5028759;28;19925;-61
2022/02/24 03:54:33;;;;;;;;;;;18.70;99.90;;;;;;5018084;28;20396;-60
2022/02/24 03:57:00;;;;;;;;;;;18.70;99.90;;;;;;5027329;28;19925;-61
2022/02/24 03:59:27;;;;;;;;;;;18.70;99.90;;;;;;5012018;28;19920;-60
2022/02/24 04:01:56;;;;;;;;;;;18.70;99.90;;;;;;5019923;28;19921;-60
2022/02/24 04:04:24;;;;;;;;;;;18.70;99.90;;;;;;5020957;28;20396;-60
2022/02/24 04:06:51;;;;;;;;;;;18.70;99.90;;;;;;5009244;28;19933;-60
2022/02/24 04:09:18;;;;;;;;;;;18.60;99.90;;;;;;4994334;28;19925;-60
2022/02/24 04:11:45;;;;;;;;;;;18.60;99.90;;;;;;5020367;28;19925;-60
2022/02/24 04:14:12;;;;;;;;;;;18.60;99.90;;;;;;5024558;28;19921;-61
2022/02/24 04:16:40;;;;;;;;;;;18.60;99.90;;;;;;5010221;28;19933;-60
2022/02/24 04:19:07;;;;;;;;;;;18.70;99.90;;;;;;5024923;28;19936;-60
2022/02/24 04:21:35;;;;;;;;;;;18.60;99.90;;;;;;5024737;28;19944;-60
2022/02/24 04:24:02;;;;;;;;;;;18.70;99.90;;;;;;5018769;28;19933;-61
2022/02/24 04:26:30;;;;;;;;;;;18.60;99.90;;;;;;5017589;28;19925;-60
2022/02/24 04:28:57;;;;;;;;;;;18.60;99.90;;;;;;5029522;28;19989;-59
2022/02/24 04:31:24;;;;;;;;;;;18.60;99.90;;;;;;5021239;28;19925;-57
2022/02/24 04:33:52;;;;;;;;;;;18.60;99.90;;;;;;5032371;28;19931;-59
2022/02/24 04:36:19;;;;;;;;;;;18.50;99.90;;;;;;5024639;28;19937;-62
2022/02/24 04:38:46;;;;;;;;;;;18.50;99.90;;;;;;5012979;28;19929;-59
2022/02/24 04:41:13;;;;;;;;;;;18.50;99.90;;;;;;5019612;28;19925;-61
2022/02/24 04:43:41;;;;;;;;;;;18.50;99.90;;;;;;5026918;28;19936;-61
2022/02/24 04:46:08;;;;;;;;;;;18.50;99.90;;;;;;5024441;28;19925;-59
2022/02/24 04:48:36;;;;;;;;;;;18.50;99.90;;;;;;5014648;28;20313;-61
2022/02/24 04:51:03;;;;;;;;;;;18.50;99.90;;;;;;5025804;28;19924;-63
2022/02/24 04:53:30;;;;;;;;;;;18.60;99.90;;;;;;5008199;28;19928;-61
2022/02/24 04:55:57;;;;;;;;;;;18.60;99.90;;;;;;5008217;28;19929;-60
2022/02/24 04:58:24;;;;;;;;;;;18.70;99.90;;;;;;5025126;28;19922;-60
2022/02/24 05:00:52;;;;;;;;;;;18.90;99.90;;;;;;5016002;28;19926;-61
2022/02/24 05:03:19;;;;;;;;;;;18.90;99.90;;;;;;5008779;28;19925;-63
2022/02/24 05:05:47;;;;;;;;;;;19.20;99.90;;;;;;5008587;28;19932;-63
2022/02/24 05:08:14;;;;;;;;;;;19.30;99.90;;;;;;5011279;28;19926;-61
2022/02/24 05:10:41;;;;;;;;;;;19.40;99.90;;;;;;5026401;28;19934;-62
2022/02/24 05:13:09;;;;;;;;;;;19.60;99.90;;;;;;5012695;28;19943;-62
2022/02/24 05:15:37;;;;;;;;;;;19.60;99.90;;;;;;5029066;28;19952;-62
2022/02/24 05:18:04;;;;;;;;;;;19.80;99.90;;;;;;5026170;28;19992;-63
2022/02/24 05:20:31;;;;;;;;;;;19.90;99.90;;;;;;5004727;28;19920;-61
2022/02/24 05:22:58;;;;;;;;;;;20.00;99.90;;;;;;5025506;28;20300;-62
2022/02/24 05:25:25;;;;;;;;;;;20.10;99.90;;;;;;5024867;28;19940;-62
2022/02/24 05:27:53;;;;;;;;;;;20.20;99.90;;;;;;5036587;28;19936;-61
2022/02/24 05:30:20;;;;;;;;;;;20.30;99.90;;;;;;5035747;28;19929;-64
2022/02/24 05:32:47;;;;;;;;;;;20.40;99.90;;;;;;5030532;28;19925;-61
2022/02/24 05:35:14;;;;;;;;;;;20.50;99.90;;;;;;5021523;28;19932;-61
2022/02/24 05:37:42;;;;;;;;;;;20.60;99.90;;;;;;5021068;28;19933;-61
2022/02/24 05:40:09;;;;;;;;;;;20.80;99.90;;;;;;5005710;28;20239;-61
2022/02/24 05:42:36;;;;;;;;;;;20.90;99.90;;;;;;5010238;28;19932;-61
2022/02/24 05:45:04;;;;;;;;;;;21.10;99.90;;;;;;5027694;28;19921;-63
2022/02/24 05:47:31;;;;;;;;;;;21.30;99.90;;;;;;5025186;28;19925;-62
2022/02/24 05:49:58;;;;;;;;;;;21.50;99.90;;;;;;5036844;28;19925;-61
2022/02/24 05:52:26;;;;;;;;;;;21.60;99.90;;;;;;5041165;28;19924;-62
2022/02/24 05:54:53;;;;;;;;;;;21.70;99.90;;;;;;5025979;28;20361;-63
2022/02/24 05:57:20;;;;;;;;;;;21.80;99.90;;;;;;5020128;28;19938;-62
2022/02/24 05:59:47;;;;;;;;;;;21.80;99.90;;;;;;5024522;28;20407;-62
2022/02/24 06:02:14;;;;;;;;;;;21.80;99.90;;;;;;5023475;28;20313;-61
2022/02/24 06:04:42;;;;;;;;;;;21.70;99.90;;;;;;5022895;28;19924;-66
2022/02/24 06:07:09;;;;;;;;;;;21.60;99.90;;;;;;5022761;28;19925;-60
2022/02/24 06:09:36;;;;;;;;;;;21.50;99.90;;;;;;5026373;28;19929;-60
2022/02/24 06:12:03;;;;;;;;;;;21.40;99.90;;;;;;5023115;28;19925;-61
2022/02/24 06:14:31;;;;;;;;;;;21.40;99.90;;;;;;5008031;28;19927;-59
2022/02/24 06:16:59;;;;;;;;;;;21.40;99.90;;;;;;5040740;28;19936;-60
2022/02/24 06:19:26;;;;;;;;;;;21.40;99.90;;;;;;5006022;28;19933;-59
2022/02/24 06:21:53;;;;;;;;;;;21.30;99.90;;;;;;5027298;28;19932;-59
2022/02/24 06:24:20;;;;;;;;;;;21.40;99.90;;;;;;5022618;28;19929;-58
2022/02/24 06:26:47;;;;;;;;;;;21.30;99.90;;;;;;5020024;28;19925;-60
2022/02/24 06:29:14;;;;;;;;;;;21.30;99.90;;;;;;5025254;28;19929;-62
2022/02/24 06:31:42;;;;;;;;;;;21.30;99.90;;;;;;5030223;28;19925;-61
2022/02/24 06:34:09;;;;;;;;;;;21.20;99.90;;;;;;5032655;28;20443;-61
2022/02/24 06:36:36;;;;;;;;;;;21.20;99.90;;;;;;5012179;28;21083;-60
2022/02/24 06:39:04;;;;;;;;;;;21.20;99.90;;;;;;5018079;28;20308;-61
2022/02/24 06:41:32;;;;;;;;;;;21.10;99.90;;;;;;5013545;28;21359;-61
2022/02/24 06:43:59;;;;;;;;;;;21.10;99.90;;;;;;5011900;28;20369;-59
2022/02/24 06:46:26;;;;;;;;;;;21.00;99.90;;;;;;5033775;28;20718;-59
2022/02/24 06:48:53;;;;;;;;;;;21.00;99.90;;;;;;5033754;28;19931;-59
2022/02/24 06:51:21;;;;;;;;;;;21.00;99.90;;;;;;5036406;28;19936;-60
2022/02/24 06:53:48;;;;;;;;;;;21.00;99.90;;;;;;5033422;28;20442;-58
2022/02/24 06:56:15;;;;;;;;;;;21.00;99.90;;;;;;5027922;28;19936;-62
2022/02/24 06:58:42;;;;;;;;;;;21.00;99.90;;;;;;5015580;28;19936;-67
2022/02/24 07:01:10;;;;;;;;;;;20.90;99.90;;;;;;5006784;28;19929;-64
2022/02/24 07:03:38;;;;;;;;;;;20.80;99.90;;;;;;5025929;28;19932;-61
2022/02/24 07:06:05;;;;;;;;;;;20.60;99.90;;;;;;5009517;28;19993;-63
2022/02/24 07:08:32;;;;;;;;;;;20.40;99.80;;;;;;5027148;28;19929;-65
2022/02/24 07:10:59;;;;;;;;;;;20.30;97.80;;;;;;5025425;28;19929;-64
2022/02/24 07:13:27;;;;;;;;;;;20.30;97.30;;;;;;5026547;28;19925;-66
2022/02/24 07:16:14;;;;;;;;;;;20.30;97.60;;;;;;5026401;28;19928;-65
2022/02/24 07:18:41;;;;;;;;;;;20.40;97.80;;;;;;5005121;28;20396;-67
2022/02/24 07:21:09;;;;;;;;;;;20.50;98.30;;;;;;5026381;28;19932;-65
2022/02/24 07:23:36;;;;;;;;;;;20.70;98.70;;;;;;5024496;28;19935;-66
2022/02/24 07:26:04;;;;;;;;;;;20.90;99.10;;;;;;5024950;28;19925;-64
2022/02/24 07:28:31;;;;;;;;;;;21.00;99.30;;;;;;5007458;28;19925;-64
2022/02/24 07:30:58;;;;;;;;;;;21.20;99.40;;;;;;5026132;28;20278;-64
2022/02/24 07:33:25;;;;;;;;;;;21.30;99.60;;;;;;5022961;28;19929;-66
2022/02/24 07:35:52;;;;;;;;;;;21.40;99.60;;;;;;5023203;28;19925;-64
2022/02/24 07:38:19;;;;;;;;;;;21.50;99.70;;;;;;5002734;28;19932;-66
2022/02/24 07:40:57;;;;;;;;;;;21.60;99.80;;;;;;5024114;28;19932;-66
2022/02/24 07:43:24;;;;;;;;;;;21.60;99.90;;;;;;5023545;28;19926;-66
2022/02/24 07:45:51;;;;;;;;;;;21.70;99.90;;;;;;5023537;28;19931;-68
2022/02/24 07:48:19;;;;;;;;;;;21.70;99.90;;;;;;5018944;28;19935;-64
2022/02/24 07:50:46;;;;;;;;;;;21.70;99.90;;;;;;4999895;28;19922;-63
2022/02/24 07:53:15;;;;;;;;;;;21.60;99.90;;;;;;5001395;28;19925;-62
2022/02/24 07:55:42;;;;;;;;;;;21.60;99.90;;;;;;5019659;28;19932;-63
2022/02/24 07:58:10;;;;;;;;;;;21.50;99.90;;;;;;4996629;28;20577;-64
2022/02/24 08:00:37;;;;;;;;;;;21.50;99.90;;;;;;5031140;28;20347;-62
2022/02/24 08:03:04;;;;;;;;;;;21.50;99.90;;;;;;5018100;28;19932;-62
2022/02/24 08:05:32;;;;;;;;;;;21.50;99.90;;;;;;5005695;28;19929;-62
2022/02/24 08:08:00;;;;;;;;;;;21.50;99.90;;;;;;5017520;28;19929;-62
2022/02/24 08:10:27;;;;;;;;;;;21.50;99.90;;;;;;5003614;28;19957;-64
2022/02/24 08:12:54;;;;;;;;;;;21.50;99.90;;;;;;5019939;28;19924;-63
2022/02/24 08:15:22;;;;;;;;;;;21.50;99.90;;;;;;5003155;28;20419;-63
2022/02/24 08:17:51;;;;;;;;;;;21.50;99.90;;;;;;5016755;28;19936;-63
2022/02/24 08:20:22;;;;;;;;;;;21.50;99.90;;;;;;5014834;28;20428;-63
2022/02/24 08:22:49;;;;;;;;;;;21.50;99.90;;;;;;5001046;28;20404;-60
2022/02/24 08:25:18;;;;;;;;;;;21.50;99.90;;;;;;5020337;28;19936;-62
2022/02/24 08:27:46;;;;;;;;;;;21.50;99.90;;;;;;5021966;28;19967;-62
2022/02/24 08:30:16;;;;;;;;;;;21.40;99.90;;;;;;5022177;28;19925;-64
2022/02/24 08:32:45;;;;;;;;;;;21.40;99.90;;;;;;5019896;28;19940;-63
2022/02/24 08:35:13;;;;;;;;;;;21.40;99.90;;;;;;5014250;28;19948;-61
2022/02/24 08:37:45;;;;;;;;;;;21.30;99.90;;;;;;5001073;28;19925;-60
2022/02/24 08:40:12;;;;;;;;;;;21.20;99.90;;;;;;5020932;28;19931;-64
2022/02/24 08:42:39;;;;;;;;;;;21.20;99.90;;;;;;5002515;28;19929;-62
2022/02/24 08:45:07;;;;;;;;;;;21.20;99.90;;;;;;5022074;28;19929;-62
2022/02/24 08:47:39;;;;;;;;;;;21.20;99.90;;;;;;4999242;28;20495;-63
2022/02/24 08:50:06;;;;;;;;;;;21.10;99.90;;;;;;5018922;28;19935;-62
2022/02/24 08:52:54;;;;;;;;;;;21.10;99.90;;;;;;5004815;28;19925;-62
2022/02/24 08:55:21;;;;;;;;;;;21.00;99.90;;;;;;5019866;28;19929;-64
2022/02/24 08:57:48;;;;;;;;;;;21.00;99.90;;;;;;5019312;28;19933;-63
2022/02/24 09:00:16;;;;;;;;;;;21.00;99.90;;;;;;5018108;28;19932;-63
2022/02/24 09:02:43;;;;;;;;;;;21.00;99.90;;;;;;5019196;28;19929;-61
2022/02/24 09:05:10;;;;;;;;;;;20.90;99.90;;;;;;5022932;28;19936;-61
2022/02/24 09:07:37;;;;;;;;;;;20.90;99.90;;;;;;5024106;28;20579;-62
2022/02/24 09:10:25;;;;;;;;;;;21.00;99.90;;;;;;5018926;28;19952;-61
2022/02/24 09:12:52;;;;;;;;;;;21.10;99.90;;;;;;5019192;28;19951;-62
2022/02/24 09:15:19;;;;;;;;;;;21.10;99.90;;;;;;5032000;28;20129;-64
2022/02/24 09:17:48;;;;;;;;;;;21.20;99.90;;;;;;5019628;28;19929;-65
2022/02/24 09:20:15;;;;;;;;;;;21.30;99.90;;;;;;5002601;28;19940;-65
2022/02/24 09:22:42;;;;;;;;;;;21.40;99.90;;;;;;5021631;28;19925;-68
2022/02/24 09:25:10;;;;;;;;;;;21.50;99.90;;;;;;5003584;28;20568;-67
2022/02/24 09:27:37;;;;;;;;;;;21.60;99.90;;;;;;5020453;28;19932;-68
2022/02/24 09:30:05;;;;;;;;;;;21.60;99.90;;;;;;5013699;28;19928;-66
2022/02/24 09:32:34;;;;;;;;;;;21.70;99.90;;;;;;5018355;28;19925;-66
2022/02/24 09:35:03;;;;;;;;;;;21.70;99.90;;;;;;5018197;28;19928;-65
2022/02/24 09:37:34;;;;;;;;;;;21.70;99.90;;;;;;5019897;28;19936;-65
2022/02/24 09:40:03;;;;;;;;;;;21.70;99.90;;;;;;5014495;28;19925;-61
2022/02/24 09:42:43;;;;;;;;;;;21.70;99.90;;;;;;5002827;28;20396;-61
2022/02/24 09:45:10;;;;;;;;;;;21.70;99.90;;;;;;5020638;28;19944;-61
2022/02/24 09:47:38;;;;;;;;;;;21.60;99.90;;;;;;5018080;28;19929;-65
2022/02/24 09:50:07;;;;;;;;;;;21.60;99.90;;;;;;5013390;28;19932;-65
2022/02/24 09:52:35;;;;;;;;;;;21.60;99.90;;;;;;4998830;28;19932;-65
2022/02/24 09:55:02;;;;;;;;;;;21.60;99.90;;;;;;5001266;28;19925;-62
2022/02/24 09:57:30;;;;;;;;;;;21.60;99.90;;;;;;5015006;28;19929;-63
2022/02/24 09:59:58;;;;;;;;;;;21.60;99.90;;;;;;4999497;28;19925;-63
2022/02/24 10:02:27;;;;;;;;;;;21.50;99.90;;;;;;5017323;28;20129;-64
2022/02/24 10:05:03;;;;;;;;;;;21.50;99.90;;;;;;5004049;28;19925;-65
2022/02/24 10:07:30;;;;;;;;;;;21.50;99.90;;;;;;5000255;28;19929;-65
2022/02/24 10:09:57;;;;;;;;;;;21.50;99.90;;;;;;5017525;28;19925;-65
2022/02/24 10:12:25;;;;;;;;;;;21.50;99.90;;;;;;5018039;28;20550;-61
2022/02/24 10:14:52;;;;;;;;;;;21.40;99.90;;;;;;5019822;28;19925;-65
2022/02/24 10:17:19;;;;;;;;;;;21.40;99.90;;;;;;5032309;28;19932;-64
2022/02/24 10:19:49;;;;;;;;;;;21.40;99.90;;;;;;5015677;28;19928;-60
2022/02/24 10:22:24;;;;;;;;;;;21.40;99.90;;;;;;5015978;28;19929;-61
2022/02/24 10:24:59;;;;;;;;;;;21.40;99.90;;;;;;5019195;28;19932;-62
2022/02/24 10:27:26;;;;;;;;;;;21.40;99.90;;;;;;5019489;28;20135;-63
2022/02/24 10:30:07;;;;;;;;;;;21.20;99.90;;;;;;5014291;28;20020;-62
2022/02/24 10:32:38;;;;;;;;;;;21.10;99.90;;;;;;4985198;28;20309;-62
2022/02/24 10:35:25;;;;;;;;;;;21.10;99.90;;;;;;5020592;28;19936;-61
2022/02/24 10:37:54;;;;;;;;;;;21.00;99.90;;;;;;5028881;28;19929;-64
2022/02/24 10:40:22;;;;;;;;;;;21.00;99.90;;;;;;5016110;28;19929;-66
2022/02/24 10:42:49;;;;;;;;;;;21.00;99.90;;;;;;5016391;28;19921;-62
2022/02/24 10:45:17;;;;;;;;;;;21.00;99.90;;;;;;5019044;28;20306;-66
2022/02/24 10:48:02;;;;;;;;;;;21.00;99.90;;;;;;5012075;28;19936;-63
2022/02/24 10:50:44;;;;;;;;;;;21.10;99.90;;;;;;5017242;28;19925;-63
2022/02/24 10:53:11;;;;;;;;;;;21.10;99.90;;;;;;5016822;28;19929;-62
2022/02/24 10:55:59;;;;;;;;;;;21.10;99.90;;;;;;5016926;28;20289;-64
2022/02/24 10:58:34;;;;;;;;;;;21.20;99.90;;;;;;5016169;28;19929;-64
2022/02/24 11:01:12;;;;;;;;;;;21.20;99.90;;;;;;5020997;28;19929;-64
2022/02/24 11:03:41;;;;;;;;;;;21.40;99.90;;;;;;5019062;28;19936;-63
2022/02/24 11:06:09;;;;;;;;;;;21.40;99.90;;;;;;5002691;28;19944;-64
2022/02/24 11:08:36;;;;;;;;;;;21.50;99.90;;;;;;4999344;28;19936;-66
2022/02/24 11:11:04;;;;;;;;;;;21.50;99.90;;;;;;5016642;28;20312;-64
2022/02/24 11:13:32;;;;;;;;;;;21.50;99.90;;;;;;5020890;28;19936;-64
2022/02/24 11:16:00;;;;;;;;;;;21.50;99.90;;;;;;5023062;28;19921;-65
2022/02/24 11:18:28;;;;;;;;;;;21.60;99.90;;;;;;5017798;28;19936;-66
2022/02/24 11:20:55;;;;;;;;;;;21.60;99.90;;;;;;5024420;28;19928;-65
2022/02/24 11:23:23;;;;;;;;;;;21.60;99.90;;;;;;5023447;28;19929;-65
2022/02/24 11:25:53;;;;;;;;;;;21.60;99.90;;;;;;5002780;28;20305;-65
2022/02/24 11:28:24;;;;;;;;;;;21.60;99.90;;;;;;5020586;28;20189;-64
2022/02/24 11:30:55;;;;;;;;;;;21.60;99.90;;;;;;5022425;28;20317;-63
2022/02/24 11:33:24;;;;;;;;;;;21.60;99.90;;;;;;5024805;28;19964;-64
2022/02/24 11:36:05;;;;;;;;;;;21.60;99.90;;;;;;5006423;28;19925;-63
2022/02/24 11:38:33;;;;;;;;;;;21.50;99.90;;;;;;5019737;28;19936;-63
2022/02/24 11:41:04;;;;;;;;;;;21.50;99.90;;;;;;5021386;28;19932;-63
2022/02/24 11:43:32;;;;;;;;;;;21.50;99.90;;;;;;5022047;28;20423;-63
2022/02/24 11:46:02;;;;;;;;;;;21.50;99.90;;;;;;5020257;28;19929;-63
2022/02/24 11:48:34;;;;;;;;;;;21.40;99.90;;;;;;5016891;28;20226;-63
2022/02/24 11:51:03;;;;;;;;;;;21.40;99.90;;;;;;5001405;28;19965;-64
2022/02/24 11:53:37;;;;;;;;;;;21.40;99.90;;;;;;5018661;28;20380;-62
2022/02/24 11:56:17;;;;;;;;;;;21.40;99.90;;;;;;4998577;28;20000;-62
2022/02/24 11:58:58;;;;;;;;;;;21.30;99.90;;;;;;5005787;28;20396;-63
2022/02/24 12:01:53;;;;;;;;;;;21.30;99.90;;;;;;5018618;28;19936;-63
2022/02/24 12:04:22;;;;;;;;;;;21.20;99.90;;;;;;5000199;28;19937;-64
2022/02/24 12:07:07;;;;;;;;;;;21.20;99.90;;;;;;5019875;28;19944;-62
2022/02/24 12:09:35;;;;;;;;;;;21.30;99.90;;;;;;5015477;28;19921;-63
2022/02/24 12:12:09;;;;;;;;;;;21.40;99.90;;;;;;5015855;28;19929;-61
2022/02/24 12:14:36;;;;;;;;;;;21.40;99.90;;;;;;5019092;28;19947;-62
2022/02/24 12:17:05;;;;;;;;;;;21.40;99.90;;;;;;5020291;28;19931;-63
2022/02/24 12:19:36;;;;;;;;;;;21.40;99.90;;;;;;5001229;28;19947;-62
2022/02/24 12:22:20;;;;;;;;;;;21.40;99.90;;;;;;5018686;28;19925;-61
2022/02/24 12:24:52;;;;;;;;;;;21.40;99.90;;;;;;5019930;28;19932;-62
2022/02/24 12:27:26;;;;;;;;;;;21.50;99.90;;;;;;5019889;28;20364;-65
2022/02/24 12:29:54;;;;;;;;;;;21.60;99.90;;;;;;5016750;28;19936;-65
2022/02/24 12:32:21;;;;;;;;;;;21.70;99.90;;;;;;5021056;28;19929;-66
2022/02/24 12:34:49;;;;;;;;;;;21.70;99.90;;;;;;5021290;28;19925;-62
2022/02/24 12:37:17;;;;;;;;;;;21.80;99.90;;;;;;5013498;28;19925;-66
2022/02/24 12:39:44;;;;;;;;;;;21.90;99.90;;;;;;5016483;28;20443;-65
2022/02/24 12:42:12;;;;;;;;;;;21.90;99.90;;;;;;5000664;28;20300;-66
2022/02/24 12:44:40;;;;;;;;;;;22.00;99.90;;;;;;4997191;28;19929;-65
2022/02/24 12:47:08;;;;;;;;;;;22.00;99.90;;;;;;5018243;28;19925;-67
2022/02/24 12:49:47;;;;;;;;;;;22.00;99.90;;;;;;5030749;28;19921;-66
2022/02/24 12:52:19;;;;;;;;;;;22.00;99.90;;;;;;5001527;28;19955;-63
2022/02/24 12:54:47;;;;;;;;;;;21.90;99.90;;;;;;5034193;28;19932;-65
2022/02/24 12:57:14;;;;;;;;;;;21.90;99.90;;;;;;5016412;28;19925;-64
2022/02/24 12:59:43;;;;;;;;;;;21.90;99.90;;;;;;5015294;28;19925;-61
2022/02/24 13:02:12;;;;;;;;;;;21.90;99.90;;;;;;5017315;28;19929;-64
2022/02/24 13:04:40;;;;;;;;;;;21.80;99.90;;;;;;5018467;28;19925;-62
2022/02/24 13:07:08;;;;;;;;;;;21.80;99.90;;;;;;5020407;28;19936;-66
2022/02/24 13:09:44;;;;;;;;;;;21.80;99.90;;;;;;4996895;28;20388;-64
2022/02/24 13:12:13;;;;;;;;;;;21.90;99.90;;;;;;5020152;28;19929;-64
2022/02/24 13:14:46;;;;;;;;;;;21.80;99.90;;;;;;5001425;28;19929;-67
2022/02/24 13:17:24;;;;;;;;;;;21.70;99.90;;;;;;5018986;28;19932;-65
2022/02/24 13:19:52;;;;;;;;;;;21.70;99.90;;;;;;5010691;28;19967;-65
2022/02/24 13:22:22;;;;;;;;;;;21.70;99.90;;;;;;5019666;28;19925;-65
2022/02/24 13:24:49;;;;;;;;;;;21.70;99.90;;;;;;5019537;28;19935;-69
2022/02/24 13:27:21;;;;;;;;;;;21.60;99.90;;;;;;5016870;28;19940;-65
2022/02/24 13:29:51;;;;;;;;;;;21.70;99.90;;;;;;4997167;28;20419;-65
2022/02/24 13:32:21;;;;;;;;;;;21.70;99.90;;;;;;5019766;28;19972;-65
2022/02/24 13:34:53;;;;;;;;;;;21.60;99.90;;;;;;5018118;28;19931;-63
2022/02/24 13:37:32;;;;;;;;;;;21.60;99.90;;;;;;5017812;28;19929;-63
2022/02/24 13:40:06;;;;;;;;;;;21.60;99.90;;;;;;5028722;28;19924;-61
2022/02/24 13:42:34;;;;;;;;;;;21.60;99.90;;;;;;5021703;28;20347;-61
2022/02/24 13:45:12;;;;;;;;;;;21.60;99.90;;;;;;5024603;28;20385;-59
2022/02/24 13:47:40;;;;;;;;;;;21.60;99.90;;;;;;5019074;28;19929;-62
2022/02/24 13:50:08;;;;;;;;;;;21.60;99.90;;;;;;5009757;28;19925;-62
2022/02/24 13:52:38;;;;;;;;;;;21.60;99.90;;;;;;5018432;28;19931;-63
2022/02/24 13:55:06;;;;;;;;;;;21.60;99.90;;;;;;5002897;28;19925;-64
2022/02/24 13:57:33;;;;;;;;;;;21.60;99.90;;;;;;5016606;28;19929;-64
2022/02/24 14:00:09;;;;;;;;;;;21.50;99.90;;;;;;5014853;28;19929;-65
2022/02/24 14:02:38;;;;;;;;;;;21.50;99.90;;;;;;5020553;28;19960;-66
2022/02/24 14:05:15;;;;;;;;;;;21.40;99.90;;;;;;5016495;28;20056;-64
2022/02/24 14:07:46;;;;;;;;;;;21.40;99.90;;;;;;5021373;28;19936;-63
2022/02/24 14:10:14;;;;;;;;;;;21.50;99.90;;;;;;5014829;28;19928;-64
2022/02/24 14:12:42;;;;;;;;;;;21.50;99.90;;;;;;5000866;28;19929;-62
2022/02/24 14:15:09;;;;;;;;;;;21.50;99.90;;;;;;5019043;28;19925;-60
2022/02/24 14:17:37;;;;;;;;;;;21.60;99.90;;;;;;5020052;28;19925;-61
2022/02/24 14:20:12;;;;;;;;;;;21.80;99.90;;;;;;5012622;28;19928;-60
2022/02/24 14:22:39;;;;;;;;;;;21.80;99.90;;;;;;5016085;28;19925;-62
2022/02/24 14:25:07;;;;;;;;;;;21.90;99.90;;;;;;5017097;28;19924;-65